sensor_id;sensor_type;location;lat;lon;timestamp;temperature;humidity
6536;DHT22;34330;52.08032700;5.40923460;2023-08-21T00:00:00;23.60;74.40
6536;DHT22;34330;52.08032700;5.40923460;2023-08-21T00:02:28;23.60;75.30
6536;DHT22;34330;52.08032700;5.40923460;2023-08-21T00:04:56;23.40;76.00
6536;DHT22;34330;52.08032700;5.40923460;2023-08-21T00:07:26;23.40;75.90
6536;DHT22;34330;52.08032700;5.40923460;2023-08-21T00:09:54;23.50;76.10
6536;DHT22;34330;52.08032700;5.40923460;2023-08-21T00:12:22;23.50;75.90
6536;DHT22;34330;52.08032700;5.40923460;2023-08-21T00:14:50;23.50;76.00
6536;DHT22;34330;52.08032700;5.40923460;2023-08-21T00:17:18;23.50;75.90
6536;DHT22;34330;52.08032700;5.40923460;2023-08-21T00:19:46;23.50;75.90
6536;DHT22;34330;52.08032700;5.40923460;2023-08-21T00:22:14;23.50;75.80
6536;DHT22;34330;52.08032700;5.40923460;2023-08-21T00:24:44;23.50;75.70
6536;DHT22;34330;52.08032700;5.40923460;2023-08-21T00:27:12;23.50;75.90
6536;DHT22;34330;52.08032700;5.40923460;2023-08-21T00:29:39;23.50;75.80
6536;DHT22;34330;52.08032700;5.40923460;2023-08-21T00:32:07;23.40;75.70
6536;DHT22;34330;52.08032700;5.40923460;2023-08-21T00:34:35;23.40;75.60
6536;DHT22;34330;52.08032700;5.40923460;2023-08-21T00:37:04;23.40;75.90
6536;DHT22;34330;52.08032700;5.40923460;2023-08-21T00:39:32;23.40;76.00
6536;DHT22;34330;52.08032700;5.40923460;2023-08-21T00:42:01;23.40;75.90
6536;DHT22;34330;52.08032700;5.40923460;2023-08-21T00:44:29;23.40;76.40
6536;DHT22;34330;52.08032700;5.40923460;2023-08-21T00:46:57;23.40;76.30
6536;DHT22;34330;52.08032700;5.40923460;2023-08-21T00:49:25;23.40;76.30
6536;DHT22;34330;52.08032700;5.40923460;2023-08-21T00:51:54;23.40;76.50
6536;DHT22;34330;52.08032700;5.40923460;2023-08-21T00:54:22;23.30;76.30
6536;DHT22;34330;52.08032700;5.40923460;2023-08-21T00:56:51;23.30;76.40
6536;DHT22;34330;52.08032700;5.40923460;2023-08-21T00:59:21;23.30;77.20
6536;DHT22;34330;52.08032700;5.40923460;2023-08-21T01:01:49;23.30;76.80
6536;DHT22;34330;52.08032700;5.40923460;2023-08-21T01:04:18;23.30;76.60
6536;DHT22;34330;52.08032700;5.40923460;2023-08-21T01:06:47;23.30;76.70
6536;DHT22;34330;52.08032700;5.40923460;2023-08-21T01:09:22;23.30;76.70
6536;DHT22;34330;52.08032700;5.40923460;2023-08-21T01:12:01;23.20;77.00
6536;DHT22;34330;52.08032700;5.40923460;2023-08-21T01:14:41;23.20;77.20
6536;DHT22;34330;52.08032700;5.40923460;2023-08-21T01:17:12;23.20;77.30
6536;DHT22;34330;52.08032700;5.40923460;2023-08-21T01:19:42;23.10;76.90
6536;DHT22;34330;52.08032700;5.40923460;2023-08-21T01:22:11;23.10;77.10
6536;DHT22;34330;52.08032700;5.40923460;2023-08-21T01:24:40;23.10;77.60
6536;DHT22;34330;52.08032700;5.40923460;2023-08-21T01:27:09;23.10;77.10
6536;DHT22;34330;52.08032700;5.40923460;2023-08-21T01:29:38;23.10;77.20
6536;DHT22;34330;52.08032700;5.40923460;2023-08-21T01:32:09;23.00;77.10
6536;DHT22;34330;52.08032700;5.40923460;2023-08-21T01:34:39;23.00;77.20
6536;DHT22;34330;52.08032700;5.40923460;2023-08-21T01:37:08;23.00;77.30
6536;DHT22;34330;52.08032700;5.40923460;2023-08-21T01:39:36;23.00;77.40
6536;DHT22;34330;52.08032700;5.40923460;2023-08-21T01:42:06;23.00;77.40
6536;DHT22;34330;52.08032700;5.40923460;2023-08-21T01:44:36;22.90;77.60
6536;DHT22;34330;52.08032700;5.40923460;2023-08-21T01:47:04;22.90;77.50
6536;DHT22;34330;52.08032700;5.40923460;2023-08-21T01:49:35;22.90;77.70
6536;DHT22;34330;52.08032700;5.40923460;2023-08-21T01:52:03;22.80;77.50
6536;DHT22;34330;52.08032700;5.40923460;2023-08-21T01:54:31;22.80;77.50
6536;DHT22;34330;52.08032700;5.40923460;2023-08-21T01:56:59;22.80;77.50
6536;DHT22;34330;52.08032700;5.40923460;2023-08-21T01:59:28;22.80;77.60
6536;DHT22;34330;52.08032700;5.40923460;2023-08-21T02:01:56;22.70;77.80
6536;DHT22;34330;52.08032700;5.40923460;2023-08-21T02:04:24;22.70;77.70
6536;DHT22;34330;52.08032700;5.40923460;2023-08-21T02:06:52;22.60;77.80
6536;DHT22;34330;52.08032700;5.40923460;2023-08-21T02:09:20;22.60;78.00
6536;DHT22;34330;52.08032700;5.40923460;2023-08-21T02:11:48;22.60;78.20
6536;DHT22;34330;52.08032700;5.40923460;2023-08-21T02:14:16;22.60;78.40
6536;DHT22;34330;52.08032700;5.40923460;2023-08-21T02:16:45;22.50;78.40
6536;DHT22;34330;52.08032700;5.40923460;2023-08-21T02:19:13;22.50;78.80
6536;DHT22;34330;52.08032700;5.40923460;2023-08-21T02:21:41;22.50;78.90
6536;DHT22;34330;52.08032700;5.40923460;2023-08-21T02:24:09;22.50;78.90
6536;DHT22;34330;52.08032700;5.40923460;2023-08-21T02:26:37;22.50;79.10
6536;DHT22;34330;52.08032700;5.40923460;2023-08-21T02:29:05;22.50;79.20
6536;DHT22;34330;52.08032700;5.40923460;2023-08-21T02:31:33;22.50;79.20
6536;DHT22;34330;52.08032700;5.40923460;2023-08-21T02:34:03;22.50;79.30
6536;DHT22;34330;52.08032700;5.40923460;2023-08-21T02:36:30;22.50;79.50
6536;DHT22;34330;52.08032700;5.40923460;2023-08-21T02:38:58;22.50;79.40
6536;DHT22;34330;52.08032700;5.40923460;2023-08-21T02:41:26;22.50;79.40
6536;DHT22;34330;52.08032700;5.40923460;2023-08-21T02:43:54;22.50;79.40
6536;DHT22;34330;52.08032700;5.40923460;2023-08-21T02:46:25;22.50;79.60
6536;DHT22;34330;52.08032700;5.40923460;2023-08-21T02:48:53;22.50;79.50
6536;DHT22;34330;52.08032700;5.40923460;2023-08-21T02:51:22;22.50;79.50
6536;DHT22;34330;52.08032700;5.40923460;2023-08-21T02:53:50;22.60;79.80
6536;DHT22;34330;52.08032700;5.40923460;2023-08-21T02:56:18;22.50;79.50
6536;DHT22;34330;52.08032700;5.40923460;2023-08-21T02:58:46;22.50;79.60
6536;DHT22;34330;52.08032700;5.40923460;2023-08-21T03:01:14;22.50;79.60
6536;DHT22;34330;52.08032700;5.40923460;2023-08-21T03:03:43;22.50;79.60
6536;DHT22;34330;52.08032700;5.40923460;2023-08-21T03:06:11;22.50;79.80
6536;DHT22;34330;52.08032700;5.40923460;2023-08-21T03:08:41;22.50;79.90
6536;DHT22;34330;52.08032700;5.40923460;2023-08-21T03:11:10;22.50;80.10
6536;DHT22;34330;52.08032700;5.40923460;2023-08-21T03:13:38;22.50;79.90
6536;DHT22;34330;52.08032700;5.40923460;2023-08-21T03:16:06;22.50;80.80
6536;DHT22;34330;52.08032700;5.40923460;2023-08-21T03:18:45;22.50;80.00
6536;DHT22;34330;52.08032700;5.40923460;2023-08-21T03:21:21;22.50;80.20
6536;DHT22;34330;52.08032700;5.40923460;2023-08-21T03:23:55;22.50;80.00
6536;DHT22;34330;52.08032700;5.40923460;2023-08-21T03:26:23;22.50;80.30
6536;DHT22;34330;52.08032700;5.40923460;2023-08-21T03:28:51;22.60;80.10
6536;DHT22;34330;52.08032700;5.40923460;2023-08-21T03:31:19;22.50;79.90
6536;DHT22;34330;52.08032700;5.40923460;2023-08-21T03:33:47;22.50;79.80
6536;DHT22;34330;52.08032700;5.40923460;2023-08-21T03:36:15;22.50;79.70
6536;DHT22;34330;52.08032700;5.40923460;2023-08-21T03:38:43;22.40;79.80
6536;DHT22;34330;52.08032700;5.40923460;2023-08-21T03:41:13;22.40;80.00
6536;DHT22;34330;52.08032700;5.40923460;2023-08-21T03:43:41;22.40;80.90
6536;DHT22;34330;52.08032700;5.40923460;2023-08-21T03:46:09;22.40;80.10
6536;DHT22;34330;52.08032700;5.40923460;2023-08-21T03:48:36;22.30;80.20
6536;DHT22;34330;52.08032700;5.40923460;2023-08-21T03:51:04;22.30;80.90
6536;DHT22;34330;52.08032700;5.40923460;2023-08-21T03:53:33;22.30;80.30
6536;DHT22;34330;52.08032700;5.40923460;2023-08-21T03:56:01;22.30;80.40
6536;DHT22;34330;52.08032700;5.40923460;2023-08-21T03:58:31;22.30;80.50
6536;DHT22;34330;52.08032700;5.40923460;2023-08-21T04:00:59;22.30;80.70
6536;DHT22;34330;52.08032700;5.40923460;2023-08-21T04:03:30;22.30;80.50
6536;DHT22;34330;52.08032700;5.40923460;2023-08-21T04:05:59;22.20;80.60
6536;DHT22;34330;52.08032700;5.40923460;2023-08-21T04:08:27;22.20;80.40
6536;DHT22;34330;52.08032700;5.40923460;2023-08-21T04:10:55;22.20;80.30
6536;DHT22;34330;52.08032700;5.40923460;2023-08-21T04:13:26;22.10;80.40
6536;DHT22;34330;52.08032700;5.40923460;2023-08-21T04:15:55;22.10;80.40
6536;DHT22;34330;52.08032700;5.40923460;2023-08-21T04:18:24;22.10;80.60
6536;DHT22;34330;52.08032700;5.40923460;2023-08-21T04:21:06;22.10;80.50
6536;DHT22;34330;52.08032700;5.40923460;2023-08-21T04:23:34;22.10;80.70
6536;DHT22;34330;52.08032700;5.40923460;2023-08-21T04:26:02;22.00;80.80
6536;DHT22;34330;52.08032700;5.40923460;2023-08-21T04:28:31;22.00;81.00
6536;DHT22;34330;52.08032700;5.40923460;2023-08-21T04:31:00;22.00;81.10
6536;DHT22;34330;52.08032700;5.40923460;2023-08-21T04:33:28;22.00;81.40
6536;DHT22;34330;52.08032700;5.40923460;2023-08-21T04:35:56;22.20;81.60
6536;DHT22;34330;52.08032700;5.40923460;2023-08-21T04:38:24;21.90;81.30
6536;DHT22;34330;52.08032700;5.40923460;2023-08-21T04:40:52;21.90;81.60
6536;DHT22;34330;52.08032700;5.40923460;2023-08-21T04:43:20;21.90;81.70
6536;DHT22;34330;52.08032700;5.40923460;2023-08-21T04:45:48;21.90;81.90
6536;DHT22;34330;52.08032700;5.40923460;2023-08-21T04:48:18;21.80;82.90
6536;DHT22;34330;52.08032700;5.40923460;2023-08-21T04:50:47;21.90;83.20
6536;DHT22;34330;52.08032700;5.40923460;2023-08-21T04:53:15;21.70;84.20
6536;DHT22;34330;52.08032700;5.40923460;2023-08-21T04:55:43;21.70;84.30
6536;DHT22;34330;52.08032700;5.40923460;2023-08-21T04:58:11;21.80;84.00
6536;DHT22;34330;52.08032700;5.40923460;2023-08-21T05:00:39;21.90;83.70
6536;DHT22;34330;52.08032700;5.40923460;2023-08-21T05:03:07;21.90;83.40
6536;DHT22;34330;52.08032700;5.40923460;2023-08-21T05:05:37;21.90;83.10
6536;DHT22;34330;52.08032700;5.40923460;2023-08-21T05:08:06;22.00;83.20
6536;DHT22;34330;52.08032700;5.40923460;2023-08-21T05:10:36;22.00;83.00
6536;DHT22;34330;52.08032700;5.40923460;2023-08-21T05:13:04;21.90;83.00
6536;DHT22;34330;52.08032700;5.40923460;2023-08-21T05:15:32;22.00;83.20
6536;DHT22;34330;52.08032700;5.40923460;2023-08-21T05:18:00;22.00;83.30
6536;DHT22;34330;52.08032700;5.40923460;2023-08-21T05:20:28;22.00;84.10
6536;DHT22;34330;52.08032700;5.40923460;2023-08-21T05:23:00;21.90;83.20
6536;DHT22;34330;52.08032700;5.40923460;2023-08-21T05:25:28;22.00;83.70
6536;DHT22;34330;52.08032700;5.40923460;2023-08-21T05:27:56;22.00;83.40
6536;DHT22;34330;52.08032700;5.40923460;2023-08-21T05:30:24;22.00;83.40
6536;DHT22;34330;52.08032700;5.40923460;2023-08-21T05:32:53;22.00;83.50
6536;DHT22;34330;52.08032700;5.40923460;2023-08-21T05:35:21;22.00;83.50
6536;DHT22;34330;52.08032700;5.40923460;2023-08-21T05:37:49;22.00;83.50
6536;DHT22;34330;52.08032700;5.40923460;2023-08-21T05:40:21;22.00;83.70
6536;DHT22;34330;52.08032700;5.40923460;2023-08-21T05:42:49;22.00;83.80
6536;DHT22;34330;52.08032700;5.40923460;2023-08-21T05:45:17;22.00;83.70
6536;DHT22;34330;52.08032700;5.40923460;2023-08-21T05:47:45;22.00;83.60
6536;DHT22;34330;52.08032700;5.40923460;2023-08-21T05:50:13;22.00;83.90
6536;DHT22;34330;52.08032700;5.40923460;2023-08-21T05:52:41;22.00;84.00
6536;DHT22;34330;52.08032700;5.40923460;2023-08-21T05:55:09;22.10;84.10
6536;DHT22;34330;52.08032700;5.40923460;2023-08-21T05:57:39;22.10;84.10
6536;DHT22;34330;52.08032700;5.40923460;2023-08-21T06:00:08;22.10;84.30
6536;DHT22;34330;52.08032700;5.40923460;2023-08-21T06:02:36;22.20;84.40
6536;DHT22;34330;52.08032700;5.40923460;2023-08-21T06:05:05;22.20;84.40
6536;DHT22;34330;52.08032700;5.40923460;2023-08-21T06:07:33;22.30;84.50
6536;DHT22;34330;52.08032700;5.40923460;2023-08-21T06:10:01;22.30;84.40
6536;DHT22;34330;52.08032700;5.40923460;2023-08-21T06:12:29;22.40;84.40
6536;DHT22;34330;52.08032700;5.40923460;2023-08-21T06:14:58;22.40;84.30
6536;DHT22;34330;52.08032700;5.40923460;2023-08-21T06:17:27;22.50;83.90
6536;DHT22;34330;52.08032700;5.40923460;2023-08-21T06:19:55;22.00;83.50
6536;DHT22;34330;52.08032700;5.40923460;2023-08-21T06:22:23;22.60;83.80
6536;DHT22;34330;52.08032700;5.40923460;2023-08-21T06:24:51;22.70;83.60
6536;DHT22;34330;52.08032700;5.40923460;2023-08-21T06:27:19;22.70;83.90
6536;DHT22;34330;52.08032700;5.40923460;2023-08-21T06:29:47;22.80;83.90
6536;DHT22;34330;52.08032700;5.40923460;2023-08-21T06:32:17;22.90;83.40
6536;DHT22;34330;52.08032700;5.40923460;2023-08-21T06:34:47;23.00;83.50
6536;DHT22;34330;52.08032700;5.40923460;2023-08-21T06:37:15;23.00;83.00
6536;DHT22;34330;52.08032700;5.40923460;2023-08-21T06:39:43;23.10;83.20
6536;DHT22;34330;52.08032700;5.40923460;2023-08-21T06:42:11;23.20;83.30
6536;DHT22;34330;52.08032700;5.40923460;2023-08-21T06:44:39;23.20;83.20
6536;DHT22;34330;52.08032700;5.40923460;2023-08-21T06:47:07;23.30;83.10
6536;DHT22;34330;52.08032700;5.40923460;2023-08-21T06:49:37;23.30;82.30
6536;DHT22;34330;52.08032700;5.40923460;2023-08-21T06:52:05;23.40;82.60
6536;DHT22;34330;52.08032700;5.40923460;2023-08-21T06:54:33;23.40;82.70
6536;DHT22;34330;52.08032700;5.40923460;2023-08-21T06:57:01;23.40;83.10
6536;DHT22;34330;52.08032700;5.40923460;2023-08-21T06:59:29;23.40;83.50
6536;DHT22;34330;52.08032700;5.40923460;2023-08-21T07:01:59;23.50;83.50
6536;DHT22;34330;52.08032700;5.40923460;2023-08-21T07:04:26;23.60;83.40
6536;DHT22;34330;52.08032700;5.40923460;2023-08-21T07:06:56;23.60;82.90
6536;DHT22;34330;52.08032700;5.40923460;2023-08-21T07:09:24;23.60;82.90
6536;DHT22;34330;52.08032700;5.40923460;2023-08-21T07:11:52;23.80;82.80
6536;DHT22;34330;52.08032700;5.40923460;2023-08-21T07:14:20;23.90;82.90
6536;DHT22;34330;52.08032700;5.40923460;2023-08-21T07:16:48;24.00;82.40
6536;DHT22;34330;52.08032700;5.40923460;2023-08-21T07:19:17;24.10;82.70
6536;DHT22;34330;52.08032700;5.40923460;2023-08-21T07:21:45;24.20;82.10
6536;DHT22;34330;52.08032700;5.40923460;2023-08-21T07:24:14;24.30;80.80
6536;DHT22;34330;52.08032700;5.40923460;2023-08-21T07:26:42;24.40;80.10
6536;DHT22;34330;52.08032700;5.40923460;2023-08-21T07:29:10;24.50;79.80
6536;DHT22;34330;52.08032700;5.40923460;2023-08-21T07:31:38;24.60;80.10
6536;DHT22;34330;52.08032700;5.40923460;2023-08-21T07:34:06;24.70;79.20
6536;DHT22;34330;52.08032700;5.40923460;2023-08-21T07:36:35;24.80;79.60
6536;DHT22;34330;52.08032700;5.40923460;2023-08-21T07:39:02;24.90;79.10
6536;DHT22;34330;52.08032700;5.40923460;2023-08-21T07:41:32;25.00;78.60
6536;DHT22;34330;52.08032700;5.40923460;2023-08-21T07:44:00;25.10;79.50
6536;DHT22;34330;52.08032700;5.40923460;2023-08-21T07:46:28;25.20;79.30
6536;DHT22;34330;52.08032700;5.40923460;2023-08-21T07:48:56;25.30;79.20
6536;DHT22;34330;52.08032700;5.40923460;2023-08-21T07:51:24;25.40;78.60
6536;DHT22;34330;52.08032700;5.40923460;2023-08-21T07:53:52;25.50;79.00
6536;DHT22;34330;52.08032700;5.40923460;2023-08-21T07:56:20;25.60;78.40
6536;DHT22;34330;52.08032700;5.40923460;2023-08-21T07:58:49;25.70;77.90
6536;DHT22;34330;52.08032700;5.40923460;2023-08-21T08:01:18;25.70;77.70
6536;DHT22;34330;52.08032700;5.40923460;2023-08-21T08:03:48;25.80;77.50
6536;DHT22;34330;52.08032700;5.40923460;2023-08-21T08:06:17;25.90;77.00
6536;DHT22;34330;52.08032700;5.40923460;2023-08-21T08:08:45;25.90;77.50
6536;DHT22;34330;52.08032700;5.40923460;2023-08-21T08:11:13;25.90;77.70
6536;DHT22;34330;52.08032700;5.40923460;2023-08-21T08:13:41;25.90;77.80
6536;DHT22;34330;52.08032700;5.40923460;2023-08-21T08:16:10;26.00;77.60
6536;DHT22;34330;52.08032700;5.40923460;2023-08-21T08:18:38;26.10;76.30
6536;DHT22;34330;52.08032700;5.40923460;2023-08-21T08:21:06;26.20;75.80
6536;DHT22;34330;52.08032700;5.40923460;2023-08-21T08:23:35;26.20;73.90
6536;DHT22;34330;52.08032700;5.40923460;2023-08-21T08:26:03;26.30;73.80
6536;DHT22;34330;52.08032700;5.40923460;2023-08-21T08:28:31;26.40;74.10
6536;DHT22;34330;52.08032700;5.40923460;2023-08-21T08:30:59;27.20;73.70
6536;DHT22;34330;52.08032700;5.40923460;2023-08-21T08:33:30;26.60;73.40
6536;DHT22;34330;52.08032700;5.40923460;2023-08-21T08:35:57;26.60;72.80
6536;DHT22;34330;52.08032700;5.40923460;2023-08-21T08:38:29;26.60;71.70
6536;DHT22;34330;52.08032700;5.40923460;2023-08-21T08:41:00;26.60;71.90
6536;DHT22;34330;52.08032700;5.40923460;2023-08-21T08:43:30;26.70;71.30
6536;DHT22;34330;52.08032700;5.40923460;2023-08-21T08:45:58;26.80;71.30
6536;DHT22;34330;52.08032700;5.40923460;2023-08-21T08:48:29;26.80;71.70
6536;DHT22;34330;52.08032700;5.40923460;2023-08-21T08:50:57;26.90;71.40
6536;DHT22;34330;52.08032700;5.40923460;2023-08-21T08:53:25;26.90;70.90
6536;DHT22;34330;52.08032700;5.40923460;2023-08-21T08:55:58;27.00;71.00
6536;DHT22;34330;52.08032700;5.40923460;2023-08-21T08:58:26;27.00;69.80
6536;DHT22;34330;52.08032700;5.40923460;2023-08-21T09:00:54;27.10;69.00
6536;DHT22;34330;52.08032700;5.40923460;2023-08-21T09:03:22;27.10;68.40
6536;DHT22;34330;52.08032700;5.40923460;2023-08-21T09:05:51;27.20;68.10
6536;DHT22;34330;52.08032700;5.40923460;2023-08-21T09:08:20;27.20;67.60
6536;DHT22;34330;52.08032700;5.40923460;2023-08-21T09:10:48;27.20;67.60
6536;DHT22;34330;52.08032700;5.40923460;2023-08-21T09:13:17;26.60;66.70
6536;DHT22;34330;52.08032700;5.40923460;2023-08-21T09:15:47;27.20;67.60
6536;DHT22;34330;52.08032700;5.40923460;2023-08-21T09:18:16;27.30;66.90
6536;DHT22;34330;52.08032700;5.40923460;2023-08-21T09:20:44;27.30;67.00
6536;DHT22;34330;52.08032700;5.40923460;2023-08-21T09:23:17;27.40;66.40
6536;DHT22;34330;52.08032700;5.40923460;2023-08-21T09:25:47;27.50;66.10
6536;DHT22;34330;52.08032700;5.40923460;2023-08-21T09:28:19;27.50;66.40
6536;DHT22;34330;52.08032700;5.40923460;2023-08-21T09:30:50;27.60;65.30
6536;DHT22;34330;52.08032700;5.40923460;2023-08-21T09:33:19;27.60;65.60
6536;DHT22;34330;52.08032700;5.40923460;2023-08-21T09:35:48;27.70;65.60
6536;DHT22;34330;52.08032700;5.40923460;2023-08-21T09:38:17;27.70;65.50
6536;DHT22;34330;52.08032700;5.40923460;2023-08-21T09:40:50;27.70;65.10
6536;DHT22;34330;52.08032700;5.40923460;2023-08-21T09:43:20;27.80;64.40
6536;DHT22;34330;52.08032700;5.40923460;2023-08-21T09:45:49;27.90;64.60
6536;DHT22;34330;52.08032700;5.40923460;2023-08-21T09:48:19;27.90;64.30
6536;DHT22;34330;52.08032700;5.40923460;2023-08-21T09:50:49;27.90;63.70
6536;DHT22;34330;52.08032700;5.40923460;2023-08-21T09:53:20;28.00;64.10
6536;DHT22;34330;52.08032700;5.40923460;2023-08-21T09:55:50;28.00;63.00
6536;DHT22;34330;52.08032700;5.40923460;2023-08-21T09:58:20;28.10;63.20
6536;DHT22;34330;52.08032700;5.40923460;2023-08-21T10:00:49;28.10;62.80
6536;DHT22;34330;52.08032700;5.40923460;2023-08-21T10:03:19;28.10;63.30
6536;DHT22;34330;52.08032700;5.40923460;2023-08-21T10:05:49;28.20;63.00
6536;DHT22;34330;52.08032700;5.40923460;2023-08-21T10:08:24;28.20;63.20
6536;DHT22;34330;52.08032700;5.40923460;2023-08-21T10:10:52;28.20;61.50
6536;DHT22;34330;52.08032700;5.40923460;2023-08-21T10:13:21;28.20;62.40
6536;DHT22;34330;52.08032700;5.40923460;2023-08-21T10:15:49;28.30;62.10
6536;DHT22;34330;52.08032700;5.40923460;2023-08-21T10:18:18;28.30;61.90
6536;DHT22;34330;52.08032700;5.40923460;2023-08-21T10:20:48;28.40;62.00
6536;DHT22;34330;52.08032700;5.40923460;2023-08-21T10:23:28;27.40;61.10
6536;DHT22;34330;52.08032700;5.40923460;2023-08-21T10:25:57;28.50;60.90
6536;DHT22;34330;52.08032700;5.40923460;2023-08-21T10:28:50;28.50;60.70
6536;DHT22;34330;52.08032700;5.40923460;2023-08-21T10:31:33;28.60;59.50
6536;DHT22;34330;52.08032700;5.40923460;2023-08-21T10:34:03;28.60;58.30
6536;DHT22;34330;52.08032700;5.40923460;2023-08-21T10:37:02;28.70;59.60
6536;DHT22;34330;52.08032700;5.40923460;2023-08-21T10:39:33;28.70;58.50
6536;DHT22;34330;52.08032700;5.40923460;2023-08-21T10:42:06;28.80;58.60
6536;DHT22;34330;52.08032700;5.40923460;2023-08-21T10:44:36;28.80;58.50
6536;DHT22;34330;52.08032700;5.40923460;2023-08-21T10:47:15;28.80;58.90
6536;DHT22;34330;52.08032700;5.40923460;2023-08-21T10:49:45;28.90;57.50
6536;DHT22;34330;52.08032700;5.40923460;2023-08-21T10:52:14;28.90;58.30
6536;DHT22;34330;52.08032700;5.40923460;2023-08-21T10:54:48;28.90;59.20
6536;DHT22;34330;52.08032700;5.40923460;2023-08-21T10:57:16;29.00;58.30
6536;DHT22;34330;52.08032700;5.40923460;2023-08-21T10:59:50;29.10;58.00
6536;DHT22;34330;52.08032700;5.40923460;2023-08-21T11:02:19;29.10;56.70
6536;DHT22;34330;52.08032700;5.40923460;2023-08-21T11:04:47;29.20;57.90
6536;DHT22;34330;52.08032700;5.40923460;2023-08-21T11:07:16;29.30;59.00
6536;DHT22;34330;52.08032700;5.40923460;2023-08-21T11:09:45;29.40;58.40
6536;DHT22;34330;52.08032700;5.40923460;2023-08-21T11:12:15;29.40;58.40
6536;DHT22;34330;52.08032700;5.40923460;2023-08-21T11:14:44;29.60;58.30
6536;DHT22;34330;52.08032700;5.40923460;2023-08-21T11:17:12;29.60;58.50
6536;DHT22;34330;52.08032700;5.40923460;2023-08-21T11:19:41;29.70;58.20
6536;DHT22;34330;52.08032700;5.40923460;2023-08-21T11:22:11;29.70;54.60
6536;DHT22;34330;52.08032700;5.40923460;2023-08-21T11:24:45;29.80;55.30
6536;DHT22;34330;52.08032700;5.40923460;2023-08-21T11:27:14;29.80;55.50
6536;DHT22;34330;52.08032700;5.40923460;2023-08-21T11:29:44;29.90;56.40
6536;DHT22;34330;52.08032700;5.40923460;2023-08-21T11:32:13;29.90;54.90
6536;DHT22;34330;52.08032700;5.40923460;2023-08-21T11:34:43;30.10;54.80
6536;DHT22;34330;52.08032700;5.40923460;2023-08-21T11:37:16;30.10;54.90
6536;DHT22;34330;52.08032700;5.40923460;2023-08-21T11:39:48;30.10;54.80
6536;DHT22;34330;52.08032700;5.40923460;2023-08-21T11:42:16;30.10;54.60
6536;DHT22;34330;52.08032700;5.40923460;2023-08-21T11:44:46;30.20;55.20
6536;DHT22;34330;52.08032700;5.40923460;2023-08-21T11:47:16;30.20;55.50
6536;DHT22;34330;52.08032700;5.40923460;2023-08-21T11:49:46;30.30;55.30
6536;DHT22;34330;52.08032700;5.40923460;2023-08-21T11:52:18;30.30;55.00
6536;DHT22;34330;52.08032700;5.40923460;2023-08-21T11:54:49;30.40;53.80
6536;DHT22;34330;52.08032700;5.40923460;2023-08-21T11:57:18;30.40;54.30
6536;DHT22;34330;52.08032700;5.40923460;2023-08-21T11:59:50;30.40;54.40
6536;DHT22;34330;52.08032700;5.40923460;2023-08-21T12:02:22;30.50;54.20
6536;DHT22;34330;52.08032700;5.40923460;2023-08-21T12:04:53;30.50;53.60
6536;DHT22;34330;52.08032700;5.40923460;2023-08-21T12:07:21;30.50;53.10
6536;DHT22;34330;52.08032700;5.40923460;2023-08-21T12:09:51;30.60;52.90
6536;DHT22;34330;52.08032700;5.40923460;2023-08-21T12:12:19;30.60;51.70
6536;DHT22;34330;52.08032700;5.40923460;2023-08-21T12:14:47;30.70;51.40
6536;DHT22;34330;52.08032700;5.40923460;2023-08-21T12:17:15;30.80;51.20
6536;DHT22;34330;52.08032700;5.40923460;2023-08-21T12:19:44;30.80;50.90
6536;DHT22;34330;52.08032700;5.40923460;2023-08-21T12:22:12;30.80;51.30
6536;DHT22;34330;52.08032700;5.40923460;2023-08-21T12:24:40;30.80;50.50
6536;DHT22;34330;52.08032700;5.40923460;2023-08-21T12:27:09;30.90;51.50
6536;DHT22;34330;52.08032700;5.40923460;2023-08-21T12:29:37;30.90;51.20
6536;DHT22;34330;52.08032700;5.40923460;2023-08-21T12:32:05;30.90;51.70
6536;DHT22;34330;52.08032700;5.40923460;2023-08-21T12:34:34;30.90;52.20
6536;DHT22;34330;52.08032700;5.40923460;2023-08-21T12:37:02;30.90;50.10
6536;DHT22;34330;52.08032700;5.40923460;2023-08-21T12:39:30;30.90;50.70
6536;DHT22;34330;52.08032700;5.40923460;2023-08-21T12:41:58;31.00;51.20
6536;DHT22;34330;52.08032700;5.40923460;2023-08-21T12:44:28;31.10;50.80
6536;DHT22;34330;52.08032700;5.40923460;2023-08-21T12:46:56;31.30;50.60
6536;DHT22;34330;52.08032700;5.40923460;2023-08-21T12:49:26;31.30;50.60
6536;DHT22;34330;52.08032700;5.40923460;2023-08-21T12:51:54;31.40;50.90
6536;DHT22;34330;52.08032700;5.40923460;2023-08-21T12:54:23;31.50;50.00
6536;DHT22;34330;52.08032700;5.40923460;2023-08-21T12:56:51;31.60;50.10
6536;DHT22;34330;52.08032700;5.40923460;2023-08-21T12:59:20;31.70;49.80
6536;DHT22;34330;52.08032700;5.40923460;2023-08-21T13:01:50;31.80;49.70
6536;DHT22;34330;52.08032700;5.40923460;2023-08-21T13:04:18;31.90;50.00
6536;DHT22;34330;52.08032700;5.40923460;2023-08-21T13:06:46;31.90;49.50
6536;DHT22;34330;52.08032700;5.40923460;2023-08-21T13:09:15;32.00;49.70
6536;DHT22;34330;52.08032700;5.40923460;2023-08-21T13:11:43;31.90;49.50
6536;DHT22;34330;52.08032700;5.40923460;2023-08-21T13:14:11;31.90;49.30
6536;DHT22;34330;52.08032700;5.40923460;2023-08-21T13:16:38;32.00;49.40
6536;DHT22;34330;52.08032700;5.40923460;2023-08-21T13:19:08;32.00;49.70
6536;DHT22;34330;52.08032700;5.40923460;2023-08-21T13:21:36;32.00;48.50
6536;DHT22;34330;52.08032700;5.40923460;2023-08-21T13:24:04;32.10;48.70
6536;DHT22;34330;52.08032700;5.40923460;2023-08-21T13:26:32;32.20;48.70
6536;DHT22;34330;52.08032700;5.40923460;2023-08-21T13:29:00;32.20;49.20
6536;DHT22;34330;52.08032700;5.40923460;2023-08-21T13:31:28;32.30;48.40
6536;DHT22;34330;52.08032700;5.40923460;2023-08-21T13:33:56;32.20;48.50
6536;DHT22;34330;52.08032700;5.40923460;2023-08-21T13:36:26;32.20;48.90
6536;DHT22;34330;52.08032700;5.40923460;2023-08-21T13:38:55;32.10;49.10
6536;DHT22;34330;52.08032700;5.40923460;2023-08-21T13:41:24;32.10;49.10
6536;DHT22;34330;52.08032700;5.40923460;2023-08-21T13:43:52;32.10;48.70